createdAt,value
2022-09-23T00:01:12.825Z,100.00
2022-09-23T00:03:42.569Z,100.00
2022-09-23T00:06:12.259Z,100.00
2022-09-23T00:08:39.980Z,100.00
2022-09-23T00:11:15.867Z,100.00
2022-09-23T00:13:46.185Z,100.00
2022-09-23T00:16:19.983Z,100.00
2022-09-23T00:18:46.504Z,100.00
2022-09-23T00:21:28.158Z,100.00
2022-09-23T00:23:58.748Z,100.00
2022-09-23T00:26:25.289Z,100.00
2022-09-23T00:28:54.353Z,100.00
2022-09-23T00:31:23.783Z,100.00
2022-09-23T00:34:04.414Z,100.00
2022-09-23T00:36:32.519Z,100.00
2022-09-23T00:38:59.134Z,100.00
2022-09-23T00:41:26.555Z,100.00
2022-09-23T00:43:59.670Z,100.00
2022-09-23T00:46:37.237Z,100.00
2022-09-23T00:49:10.968Z,100.00
2022-09-23T00:51:43.852Z,100.00
2022-09-23T00:54:11.391Z,100.00
2022-09-23T00:56:41.575Z,100.00
2022-09-23T00:59:09.863Z,100.00
2022-09-23T01:01:37.777Z,100.00
2022-09-23T01:04:05.308Z,100.00
2022-09-23T01:06:33.681Z,100.00
2022-09-23T01:09:02.156Z,100.00
2022-09-23T01:11:47.932Z,100.00
2022-09-23T01:14:28.901Z,100.00
2022-09-23T01:17:02.108Z,100.00
2022-09-23T01:20:17.233Z,100.00
2022-09-23T01:22:54.773Z,100.00
2022-09-23T01:25:24.415Z,100.00
2022-09-23T01:27:58.731Z,100.00
2022-09-23T01:30:49.492Z,100.00
2022-09-23T01:33:29.815Z,100.00
2022-09-23T01:36:19.038Z,100.00
2022-09-23T01:39:00.290Z,100.00
2022-09-23T01:41:51.652Z,100.00
2022-09-23T01:44:43.251Z,100.00
2022-09-23T01:47:19.454Z,100.00
2022-09-23T01:50:02.767Z,100.00
2022-09-23T01:52:44.623Z,100.00
2022-09-23T01:55:19.158Z,100.00
2022-09-23T01:58:00.488Z,100.00
2022-09-23T02:00:33.721Z,100.00
2022-09-23T02:03:14.072Z,100.00
2022-09-23T02:05:48.365Z,100.00
2022-09-23T02:08:20.681Z,100.00
2022-09-23T02:10:58.374Z,100.00
2022-09-23T02:13:32.656Z,100.00
2022-09-23T02:16:03.787Z,100.00
2022-09-23T02:18:37.300Z,100.00
2022-09-23T02:21:10.508Z,100.00
2022-09-23T02:23:43.754Z,100.00
2022-09-23T02:26:27.085Z,100.00
2022-09-23T02:29:04.547Z,100.00
2022-09-23T02:31:55.475Z,100.00
2022-09-23T02:34:45.263Z,100.00
2022-09-23T02:37:23.496Z,100.00
2022-09-23T02:40:12.632Z,100.00
2022-09-23T02:43:03.149Z,100.00
2022-09-23T02:45:33.747Z,100.00
2022-09-23T02:48:08.333Z,100.00
2022-09-23T02:50:35.407Z,100.00
2022-09-23T02:53:02.366Z,100.00
2022-09-23T02:55:34.164Z,100.00
2022-09-23T02:58:02.281Z,100.00
2022-09-23T03:00:43.124Z,100.00
2022-09-23T03:03:31.233Z,98.82
2022-09-23T03:06:02.028Z,99.19
2022-09-23T03:08:51.103Z,98.29
2022-09-23T03:11:23.496Z,97.20
2022-09-23T03:14:17.034Z,96.59
2022-09-23T03:17:09.901Z,94.89
2022-09-23T03:19:44.533Z,96.14
2022-09-23T03:22:28.363Z,97.37
2022-09-23T03:24:59.173Z,98.34
2022-09-23T03:27:31.775Z,98.58
2022-09-23T03:29:59.202Z,98.47
2022-09-23T03:32:29.271Z,100.00
2022-09-23T03:35:00.364Z,100.00
2022-09-23T03:37:43.297Z,100.00
2022-09-23T03:40:20.367Z,100.00
2022-09-23T03:42:49.050Z,100.00
2022-09-23T03:45:20.636Z,100.00
2022-09-23T03:47:49.135Z,100.00
2022-09-23T03:50:17.410Z,100.00
2022-09-23T03:52:44.743Z,100.00
2022-09-23T03:55:15.730Z,100.00
2022-09-23T03:57:42.350Z,100.00
2022-09-23T04:00:10.022Z,100.00
2022-09-23T04:02:36.549Z,100.00
2022-09-23T04:05:03.539Z,99.85
2022-09-23T04:07:30.209Z,100.00
2022-09-23T04:09:56.900Z,99.37
2022-09-23T04:12:23.413Z,99.58
2022-09-23T04:14:49.939Z,98.35
2022-09-23T04:17:16.868Z,97.53
2022-09-23T04:19:43.585Z,98.07
2022-09-23T04:22:10.094Z,97.82
2022-09-23T04:24:38.348Z,98.40
2022-09-23T04:27:08.050Z,98.74
2022-09-23T04:29:34.591Z,99.47
2022-09-23T04:32:01.419Z,99.23
2022-09-23T04:34:27.957Z,99.09
2022-09-23T04:36:54.506Z,99.40
2022-09-23T04:39:25.562Z,98.10
2022-09-23T04:41:52.065Z,97.52
2022-09-23T04:44:20.360Z,96.75
2022-09-23T04:46:48.431Z,96.38
2022-09-23T04:49:16.617Z,96.89
2022-09-23T04:51:43.707Z,97.92
2022-09-23T04:54:13.617Z,98.77
2022-09-23T04:56:41.024Z,98.64
2022-09-23T04:59:07.993Z,99.94
2022-09-23T05:01:38.659Z,100.00
2022-09-23T05:04:08.637Z,100.00
2022-09-23T05:06:36.011Z,100.00
2022-09-23T05:09:10.380Z,100.00
2022-09-23T05:11:36.853Z,100.00
2022-09-23T05:14:03.535Z,100.00
2022-09-23T05:16:36.444Z,100.00
2022-09-23T05:19:04.114Z,100.00
2022-09-23T05:21:31.389Z,100.00
2022-09-23T05:24:03.239Z,100.00
2022-09-23T05:26:34.180Z,100.00
2022-09-23T05:29:01.008Z,100.00
2022-09-23T05:31:31.692Z,100.00
2022-09-23T05:34:01.960Z,100.00
2022-09-23T05:36:34.267Z,100.00
2022-09-23T05:39:06.161Z,99.62
2022-09-23T05:41:34.016Z,98.72
2022-09-23T05:44:00.984Z,96.15
2022-09-23T05:46:33.799Z,93.09
2022-09-23T05:49:05.483Z,91.77
2022-09-23T05:51:33.727Z,89.65
2022-09-23T05:54:03.058Z,90.06
2022-09-23T05:56:31.170Z,86.78
2022-09-23T05:59:01.697Z,86.11
2022-09-23T06:01:36.457Z,85.33
2022-09-23T06:04:05.254Z,81.89
2022-09-23T06:06:33.302Z,79.42
2022-09-23T06:09:00.685Z,77.20
2022-09-23T06:11:30.543Z,74.49
2022-09-23T06:14:01.137Z,73.16
2022-09-23T06:16:34.422Z,74.51
2022-09-23T06:19:07.421Z,76.19
2022-09-23T06:21:40.674Z,72.43
2022-09-23T06:24:08.168Z,71.27
2022-09-23T06:26:37.783Z,72.34
2022-09-23T06:29:10.397Z,72.45
2022-09-23T06:31:37.181Z,71.98
2022-09-23T06:34:11.509Z,76.05
2022-09-23T06:36:46.825Z,76.58
2022-09-23T06:39:15.076Z,76.86
2022-09-23T06:41:42.374Z,80.17
2022-09-23T06:44:09.196Z,83.39
2022-09-23T06:46:36.892Z,85.36
2022-09-23T06:49:03.827Z,84.44
2022-09-23T06:51:30.656Z,85.70
2022-09-23T06:53:57.199Z,85.03
2022-09-23T06:56:24.723Z,83.87
2022-09-23T06:58:57.797Z,83.12
2022-09-23T07:01:24.813Z,82.48
2022-09-23T07:03:51.981Z,80.99
2022-09-23T07:06:20.265Z,78.21
2022-09-23T07:08:48.220Z,77.17
2022-09-23T07:11:15.764Z,76.77
2022-09-23T07:13:42.827Z,76.00
2022-09-23T07:16:10.957Z,72.81
2022-09-23T07:18:37.819Z,70.55
2022-09-23T07:21:20.336Z,70.07
2022-09-23T07:23:50.410Z,69.08
2022-09-23T07:26:18.079Z,67.40
2022-09-23T07:28:47.283Z,66.78
2022-09-23T07:31:24.172Z,67.24
2022-09-23T07:34:01.440Z,64.87
2022-09-23T07:36:31.013Z,64.45
2022-09-23T07:39:00.599Z,63.87
2022-09-23T07:41:30.772Z,65.00
2022-09-23T07:44:00.176Z,63.54
2022-09-23T07:46:29.016Z,61.99
2022-09-23T07:48:57.619Z,60.90
2022-09-23T07:51:35.530Z,61.99
2022-09-23T07:54:05.494Z,61.04
2022-09-23T07:56:31.997Z,59.34
2022-09-23T07:59:01.775Z,57.23
2022-09-23T08:01:35.535Z,58.04
2022-09-23T08:04:12.060Z,60.54
2022-09-23T08:06:49.677Z,58.41
2022-09-23T08:09:18.452Z,59.43
2022-09-23T08:11:51.028Z,56.32
2022-09-23T08:14:18.651Z,55.98
2022-09-23T08:16:47.106Z,56.98
2022-09-23T08:19:14.041Z,56.83
2022-09-23T08:21:41.878Z,55.50
2022-09-23T08:24:12.529Z,55.05
2022-09-23T08:26:39.030Z,54.68
2022-09-23T08:29:05.855Z,56.25
2022-09-23T08:31:32.485Z,55.65
2022-09-23T08:33:59.468Z,54.13
2022-09-23T08:36:34.723Z,53.52
2022-09-23T08:39:01.343Z,50.83
2022-09-23T08:42:16.349Z,51.00
2022-09-23T08:44:55.212Z,52.17
2022-09-23T08:47:50.911Z,53.10
2022-09-23T08:50:21.173Z,50.30
2022-09-23T08:52:53.977Z,53.66
2022-09-23T08:55:29.705Z,53.06
2022-09-23T09:01:07.010Z,49.88
2022-09-23T09:03:44.683Z,52.42
2022-09-23T09:06:18.961Z,51.28
2022-09-23T09:08:55.457Z,51.45
2022-09-23T09:11:25.504Z,50.97
2022-09-23T09:14:25.374Z,50.03
2022-09-23T09:17:01.873Z,51.78
2022-09-23T09:19:37.585Z,51.40
2022-09-23T09:22:09.315Z,51.05
2022-09-23T09:24:35.847Z,50.33
2022-09-23T09:27:13.679Z,51.38
2022-09-23T09:29:44.951Z,48.39
2022-09-23T09:32:46.509Z,50.36
2022-09-23T09:35:22.290Z,47.56
2022-09-23T09:37:49.068Z,49.16
2022-09-23T09:40:17.314Z,48.27
2022-09-23T09:42:48.574Z,48.55
2022-09-23T09:45:41.714Z,48.98
2022-09-23T09:48:34.431Z,48.24
2022-09-23T09:51:20.577Z,46.57
2022-09-23T09:53:47.081Z,44.98
2022-09-23T09:56:16.504Z,48.17
2022-09-23T09:58:46.788Z,47.77
2022-09-23T10:01:40.639Z,48.17
2022-09-23T10:04:29.895Z,47.78
2022-09-23T10:07:14.195Z,47.24
2022-09-23T10:09:51.235Z,46.51
2022-09-23T10:12:22.650Z,47.58
2022-09-23T10:14:55.354Z,45.83
2022-09-23T10:17:23.359Z,47.98
2022-09-23T10:20:02.737Z,45.24
2022-09-23T10:22:36.402Z,45.92
2022-09-23T10:25:08.056Z,45.11
2022-09-23T10:27:36.431Z,44.48
2022-09-23T10:30:23.489Z,41.17
2022-09-23T10:32:52.133Z,43.43
2022-09-23T10:35:22.615Z,42.54
2022-09-23T10:37:52.334Z,41.44
2022-09-23T10:40:56.356Z,38.98
2022-09-23T10:44:17.988Z,41.87
2022-09-23T10:47:29.681Z,38.99
2022-09-23T10:50:15.680Z,37.70
2022-09-23T10:52:55.370Z,35.97
2022-09-23T10:55:25.000Z,40.76
2022-09-23T10:58:14.211Z,36.61
2022-09-23T11:01:11.597Z,36.47
2022-09-23T11:04:01.361Z,38.65
2022-09-23T11:06:34.700Z,38.89
2022-09-23T11:09:40.711Z,35.86
2022-09-23T11:12:44.243Z,36.51
2022-09-23T11:15:22.652Z,37.00
2022-09-23T11:18:08.415Z,37.31
2022-09-23T11:20:40.708Z,35.64
2022-09-23T11:23:26.540Z,37.21
2022-09-23T11:26:09.172Z,34.64
2022-09-23T11:28:55.105Z,37.86
2022-09-23T11:31:28.054Z,34.07
2022-09-23T11:33:59.414Z,36.77
2022-09-23T11:36:41.179Z,35.77
2022-09-23T11:39:31.335Z,34.89
2022-09-23T11:42:00.445Z,38.74
2022-09-23T11:44:35.241Z,37.75
2022-09-23T11:47:09.297Z,38.94
2022-09-23T11:49:45.456Z,37.82
2022-09-23T11:52:24.901Z,38.12
2022-09-23T11:55:18.915Z,37.36
2022-09-23T11:57:49.646Z,39.05
2022-09-23T12:00:23.090Z,37.14
2022-09-23T12:03:06.089Z,38.24
2022-09-23T12:05:46.443Z,38.63
2022-09-23T12:08:22.226Z,38.47
2022-09-23T12:11:03.781Z,36.29
2022-09-23T12:13:56.115Z,36.70
2022-09-23T12:16:42.688Z,36.95
2022-09-23T12:19:41.537Z,37.92
2022-09-23T12:22:28.838Z,36.90
2022-09-23T12:25:13.813Z,38.73
2022-09-23T12:27:45.769Z,39.47
2022-09-23T12:30:19.324Z,38.31
2022-09-23T12:32:48.523Z,38.84
2022-09-23T12:35:33.773Z,36.94
2022-09-23T12:38:03.468Z,38.78
2022-09-23T12:40:34.769Z,38.20
2022-09-23T12:43:02.467Z,38.97
2022-09-23T12:45:32.771Z,38.49
2022-09-23T12:48:18.108Z,38.06
2022-09-23T12:51:07.920Z,37.35
2022-09-23T12:53:34.437Z,38.99
2022-09-23T12:56:37.376Z,39.53
2022-09-23T12:59:17.419Z,38.49
2022-09-23T13:01:46.337Z,39.72
2022-09-23T13:04:49.782Z,36.00
2022-09-23T13:07:32.768Z,39.08
2022-09-23T13:10:21.997Z,38.09
2022-09-23T13:12:55.191Z,39.89
2022-09-23T13:15:34.001Z,38.75
2022-09-23T13:18:22.487Z,37.76
2022-09-23T13:20:51.034Z,39.81
2022-09-23T13:23:21.309Z,39.90
2022-09-23T13:25:51.680Z,39.36
2022-09-23T13:28:55.884Z,37.13
2022-09-23T13:31:24.206Z,39.89
2022-09-23T13:33:56.740Z,40.54
2022-09-23T13:36:23.511Z,40.75
2022-09-23T13:38:50.160Z,41.31
2022-09-23T13:41:25.232Z,41.26
2022-09-23T13:44:00.566Z,41.72
2022-09-23T13:46:34.161Z,39.27
2022-09-23T13:49:00.879Z,42.13
2022-09-23T13:51:39.261Z,42.50
2022-09-23T13:54:09.243Z,42.81
2022-09-23T13:56:37.830Z,42.21
2022-09-23T13:59:31.461Z,42.01
2022-09-23T14:02:13.201Z,41.25
2022-09-23T14:04:40.139Z,41.88
2022-09-23T14:07:08.559Z,41.90
2022-09-23T14:09:36.632Z,41.69
2022-09-23T14:12:07.794Z,41.13
2022-09-23T14:14:37.706Z,40.57
2022-09-23T14:17:06.977Z,41.38
2022-09-23T14:19:37.501Z,41.91
2022-09-23T14:22:04.136Z,42.33
2022-09-23T14:24:30.532Z,42.71
2022-09-23T14:27:22.226Z,42.44
2022-09-23T14:29:49.665Z,42.68
2022-09-23T14:32:27.397Z,42.83
2022-09-23T14:35:00.350Z,43.32
2022-09-23T14:37:57.545Z,43.30
2022-09-23T14:41:14.592Z,43.07
2022-09-23T14:43:49.092Z,43.57
2022-09-23T14:46:20.888Z,43.91
2022-09-23T14:49:07.909Z,43.90
2022-09-23T14:51:51.092Z,44.11
2022-09-23T14:54:41.529Z,44.98
2022-09-23T14:57:23.331Z,45.09
2022-09-23T14:59:54.733Z,45.25
2022-09-23T15:02:27.870Z,45.09
2022-09-23T15:05:10.543Z,45.35
2022-09-23T15:07:38.245Z,45.54
2022-09-23T15:10:29.390Z,46.05
2022-09-23T15:13:08.209Z,46.00
2022-09-23T15:15:35.999Z,46.16
2022-09-23T15:18:19.443Z,46.62
2022-09-23T15:20:52.562Z,46.53
2022-09-23T15:23:36.505Z,46.74
2022-09-23T15:26:09.325Z,46.94
2022-09-23T15:28:39.075Z,46.78
2022-09-23T15:31:10.016Z,47.07
2022-09-23T15:33:38.459Z,47.04
2022-09-23T15:36:05.191Z,47.07
2022-09-23T15:38:31.798Z,47.20
2022-09-23T15:40:58.488Z,47.56
2022-09-23T15:43:27.187Z,48.04
2022-09-23T15:46:06.883Z,48.51
2022-09-23T15:48:52.337Z,48.66
2022-09-23T15:51:25.402Z,48.93
2022-09-23T15:53:52.255Z,48.97
2022-09-23T15:56:18.723Z,49.21
2022-09-23T15:58:45.411Z,49.95
2022-09-23T16:01:21.696Z,50.54
2022-09-23T16:03:48.405Z,50.61
2022-09-23T16:06:20.367Z,50.26
2022-09-23T16:08:47.414Z,50.79
2022-09-23T16:11:26.536Z,51.17
2022-09-23T16:13:53.503Z,51.03
2022-09-23T16:16:21.266Z,51.25
2022-09-23T16:18:50.439Z,52.70
2022-09-23T16:21:20.110Z,53.55
2022-09-23T16:23:49.290Z,54.41
2022-09-23T16:26:22.538Z,56.48
2022-09-23T16:28:50.807Z,57.35
2022-09-23T16:31:17.913Z,58.14
2022-09-23T16:33:54.955Z,58.28
2022-09-23T16:36:27.623Z,58.99
2022-09-23T16:38:57.847Z,58.69
2022-09-23T16:41:26.077Z,58.92
2022-09-23T16:43:53.517Z,59.34
2022-09-23T16:46:21.292Z,59.99
2022-09-23T16:48:52.678Z,60.52
2022-09-23T16:51:22.648Z,60.73
2022-09-23T16:53:51.037Z,60.83
2022-09-23T16:56:25.718Z,60.93
2022-09-23T16:58:55.196Z,61.46
2022-09-23T17:01:42.863Z,61.40
2022-09-23T17:04:12.423Z,61.88
2022-09-23T17:06:49.042Z,62.88
2022-09-23T17:09:18.798Z,62.30
2022-09-23T17:11:48.251Z,63.04
2022-09-23T17:14:19.535Z,63.34
2022-09-23T17:16:46.052Z,63.61
2022-09-23T17:19:12.711Z,63.85
2022-09-23T17:21:41.229Z,63.88
2022-09-23T17:24:07.929Z,64.09
2022-09-23T17:26:38.263Z,65.11
2022-09-23T17:29:13.750Z,66.15
2022-09-23T17:31:40.352Z,67.46
2022-09-23T17:34:06.938Z,67.46
2022-09-23T17:36:35.228Z,67.44
2022-09-23T17:39:01.878Z,67.72
2022-09-23T17:41:29.755Z,68.57
2022-09-23T17:43:58.663Z,68.65
2022-09-23T17:46:25.427Z,69.11
2022-09-23T17:48:55.778Z,69.34
2022-09-23T17:51:25.183Z,69.15
2022-09-23T17:53:54.069Z,69.13
2022-09-23T17:56:21.560Z,69.48
2022-09-23T17:58:49.765Z,69.56
2022-09-23T18:01:20.148Z,69.63
2022-09-23T18:03:47.436Z,70.50
2022-09-23T18:06:21.356Z,70.95
2022-09-23T18:08:49.858Z,70.97
2022-09-23T18:11:27.388Z,71.17
2022-09-23T18:13:56.721Z,71.48
2022-09-23T18:16:35.968Z,72.83
2022-09-23T18:19:03.764Z,73.11
2022-09-23T18:21:38.480Z,72.36
2022-09-23T18:27:05.901Z,72.65
2022-09-23T18:29:34.250Z,73.05
2022-09-23T18:32:01.359Z,73.27
2022-09-23T18:34:28.775Z,73.66
2022-09-23T18:36:56.210Z,74.57
2022-09-23T18:39:22.767Z,74.18
2022-09-23T18:41:51.391Z,74.23
2022-09-23T18:44:19.157Z,74.75
2022-09-23T18:46:47.934Z,74.58
2022-09-23T18:49:33.373Z,75.11
2022-09-23T18:51:59.921Z,75.56
2022-09-23T18:54:28.255Z,75.52
2022-09-23T18:57:01.230Z,75.60
2022-09-23T18:59:29.818Z,75.85
2022-09-23T19:01:56.568Z,76.47
2022-09-23T19:04:25.294Z,76.58
2022-09-23T19:06:52.240Z,77.24
2022-09-23T19:09:22.500Z,76.73
2022-09-23T19:11:54.353Z,77.58
2022-09-23T19:14:21.444Z,78.13
2022-09-23T19:16:49.295Z,78.62
2022-09-23T19:19:16.015Z,78.40
2022-09-23T19:21:45.052Z,78.81
2022-09-23T19:24:14.444Z,79.12
2022-09-23T19:26:42.697Z,79.42
2022-09-23T19:29:14.479Z,79.51
2022-09-23T19:31:42.186Z,79.68
2022-09-23T19:34:19.533Z,81.72
2022-09-23T19:36:47.718Z,80.01
2022-09-23T19:39:25.257Z,80.16
2022-09-23T19:41:58.789Z,80.20
2022-09-23T19:44:28.509Z,80.74
2022-09-23T19:46:57.037Z,80.82
2022-09-23T19:49:25.118Z,81.73
2022-09-23T19:51:56.070Z,81.68
2022-09-23T19:54:23.428Z,82.12
2022-09-23T19:56:50.411Z,82.79
2022-09-23T19:59:19.064Z,82.96
2022-09-23T20:01:48.427Z,83.23
2022-09-23T20:04:16.159Z,83.42
2022-09-23T20:06:43.331Z,83.84
2022-09-23T20:09:10.009Z,82.96
2022-09-23T20:11:36.777Z,82.99
2022-09-23T20:14:10.166Z,83.15
2022-09-23T20:16:37.358Z,83.64
2022-09-23T20:19:06.272Z,83.51
2022-09-23T20:21:35.482Z,83.86
2022-09-23T20:24:05.307Z,84.76
2022-09-23T20:26:50.542Z,84.28
2022-09-23T20:29:17.071Z,84.31
2022-09-23T20:31:43.753Z,84.02
2022-09-23T20:34:11.261Z,84.45
2022-09-23T20:36:40.950Z,84.88
2022-09-23T20:39:09.613Z,85.20
2022-09-23T20:41:40.186Z,85.59
2022-09-23T20:44:12.678Z,85.93
2022-09-23T20:46:45.290Z,86.33
2022-09-23T20:49:20.910Z,87.62
2022-09-23T20:51:48.755Z,87.49
2022-09-23T20:54:19.286Z,88.05
2022-09-23T20:56:52.847Z,88.50
2022-09-23T20:59:19.539Z,89.70
2022-09-23T21:01:46.536Z,91.55
2022-09-23T21:04:13.511Z,91.50
2022-09-23T21:06:40.059Z,91.89
2022-09-23T21:09:06.999Z,92.26
2022-09-23T21:11:40.148Z,92.62
2022-09-23T21:14:06.793Z,93.25
2022-09-23T21:16:33.420Z,93.11
2022-09-23T21:19:02.388Z,93.30
2022-09-23T21:21:29.137Z,93.72
2022-09-23T21:24:11.671Z,93.89
2022-09-23T21:26:56.155Z,94.46
2022-09-23T21:29:23.466Z,94.42
2022-09-23T21:31:50.029Z,94.23
2022-09-23T21:34:18.480Z,94.10
2022-09-23T21:36:48.038Z,93.78
2022-09-23T21:39:15.071Z,94.00
2022-09-23T21:41:44.470Z,93.61
2022-09-23T21:44:12.005Z,94.07
2022-09-23T21:46:38.740Z,94.30
2022-09-23T21:49:09.779Z,95.40
2022-09-23T21:51:40.473Z,95.25
2022-09-23T21:54:14.574Z,95.51
2022-09-23T21:56:41.806Z,95.47
2022-09-23T21:59:08.726Z,96.32
2022-09-23T22:01:38.622Z,96.13
2022-09-23T22:04:17.605Z,96.66
2022-09-23T22:06:47.086Z,97.14
2022-09-23T22:09:16.692Z,97.79
2022-09-23T22:12:04.117Z,97.77
2022-09-23T22:14:31.168Z,98.71
2022-09-23T22:17:03.798Z,98.84
2022-09-23T22:19:35.511Z,98.02
2022-09-23T22:22:06.778Z,99.01
2022-09-23T22:24:33.401Z,99.36
2022-09-23T22:27:01.720Z,100.00
2022-09-23T22:29:46.850Z,100.00
2022-09-23T22:32:32.276Z,100.00
2022-09-23T22:34:58.763Z,100.00
2022-09-23T22:37:28.224Z,100.00
2022-09-23T22:39:56.817Z,100.00
2022-09-23T22:42:23.785Z,100.00
2022-09-23T22:44:51.216Z,100.00
2022-09-23T22:47:21.401Z,100.00
2022-09-23T22:49:48.694Z,100.00
2022-09-23T22:52:21.083Z,100.00
2022-09-23T22:54:48.078Z,100.00
2022-09-23T22:57:15.335Z,100.00
2022-09-23T22:59:47.946Z,100.00
2022-09-23T23:02:19.600Z,100.00
2022-09-23T23:04:47.720Z,100.00
2022-09-23T23:07:20.318Z,100.00
2022-09-23T23:09:55.163Z,100.00
2022-09-23T23:12:21.757Z,100.00
2022-09-23T23:14:49.113Z,100.00
2022-09-23T23:17:17.094Z,100.00
2022-09-23T23:19:43.802Z,100.00
2022-09-23T23:22:12.654Z,100.00
2022-09-23T23:24:39.325Z,100.00
2022-09-23T23:27:05.858Z,100.00
2022-09-23T23:29:32.387Z,100.00
2022-09-23T23:32:03.341Z,100.00
2022-09-23T23:34:29.856Z,100.00
2022-09-23T23:36:56.404Z,100.00
2022-09-23T23:39:26.221Z,100.00
2022-09-23T23:41:55.258Z,100.00
2022-09-23T23:44:23.875Z,100.00
2022-09-23T23:46:50.746Z,100.00
2022-09-23T23:49:17.339Z,100.00
2022-09-23T23:51:43.899Z,100.00
2022-09-23T23:54:16.181Z,100.00
2022-09-23T23:56:43.093Z,100.00
2022-09-23T23:59:09.629Z,100.00
